This is the latest recevied weather packets stored in our database for station/object OE-11361. If no packets are shown the sender has not sent any weather packets the latest 10 day(s).
| Time | Temp. | Humidity | Pressure | Rain* | Wind** | Luminosity | Snow |
|---|---|---|---|---|---|---|---|
| 1787933104 | 25.56° C | 64% | 1012.8 hPa | 0 mm | - | 21 W/m² | - |
| 1787932504 | 25.56° C | 64% | 1012.7 hPa | 0 mm | - | 14 W/m² | - |
| 1787931677 | 25.56° C | 65% | 1012.3 hPa | 0 mm | - | 7 W/m² | - |
| 1787931304 | 25.56° C | 64% | 1012.1 hPa | 0 mm | - | 14 W/m² | - |
| 1787930704 | 25.56° C | 64% | 1011.8 hPa | 0 mm | - | 34 W/m² | - |
| 1787929877 | 26.67° C | 61% | 1011.2 hPa | 0 mm | - | 131 W/m² | - |
| 1787929503 | 27.78° C | 59% | 1010.6 hPa | 0 mm | - | 476 W/m² | - |
| 1787928903 | 27.22° C | 62% | 1010.4 hPa | 0 mm | - | 241 W/m² | - |
| 1787928077 | 27.22° C | 61% | 1010.1 hPa | 0 mm | - | 159 W/m² | - |
| 1787927703 | 27.78° C | 59% | 1009.7 hPa | 0 mm | - | 269 W/m² | - |
| 1787927103 | 28.33° C | 57% | 1009.2 hPa | 0 mm | - | 255 W/m² | - |
| 1787926277 | 28.33° C | 56% | 1009 hPa | 0 mm | - | 172 W/m² | - |
| 1787925904 | 30° C | 53% | 1007.6 hPa | 0 mm | - | 207 W/m² | - |
| 1787925304 | 29.44° C | 62% | 1007.2 hPa | 0 mm | - | 234 W/m² | - |
| 1787924477 | 30° C | 60% | 1006.5 hPa | 0 mm | - | 172 W/m² | - |
| 1787924104 | 30.56° C | 57% | 1006.5 hPa | 0 mm | - | 193 W/m² | - |
| 1787923504 | 31.11° C | 57% | 1006.3 hPa | 0 mm | - | 207 W/m² | - |
| 1787922675 | 32.22° C | 48% | 1006.3 hPa | 0 mm | - | 214 W/m² | - |
| 1787922303 | 33.33° C | 44% | 1005.9 hPa | 0 mm | - | 606 W/m² | - |
| 1787921704 | 32.78° C | 40% | 1006 hPa | 0 mm | - | 565 W/m² | - |
| 1787920876 | 31.67° C | 53% | 1006.3 hPa | 0 mm | - | 269 W/m² | - |
| 1787920504 | 32.78° C | 44% | 1006.1 hPa | 0 mm | - | 276 W/m² | - |
| 1787919904 | 32.78° C | 47% | 1005.8 hPa | 0 mm | - | 462 W/m² | - |
| 1787919076 | 32.78° C | 44% | 1005.7 hPa | 0 mm | - | 407 W/m² | - |
| 1787918703 | 33.33° C | 39% | 1005.8 hPa | 0 mm | - | 641 W/m² | - |
* Rain latest hour (hover to see other rain measurements)
** Current wind speed in m/s (hover to see current wind gust speed)